Time;durP1;ratioP1;P1;durP2;ratioP2;P2;SDS_P1;SDS_P2;PMS_P1;PMS_P2;Temp;Humidity;BMP_temperature;BMP_pressure;BME280_temperature;BME280_humidity;BME280_pressure;Samples;Min_cycle;Max_cycle;Signal;HPM_P1;HPM_P2
2022/09/10 00:01:33;;;;;;;117.50;109.80;;;;;;;;;;10492161;28;20100;-86
2022/09/10 00:06:34;;;;;;;125.10;116.72;;;;;;;;;;10471944;28;20020;-80
2022/09/10 00:11:37;;;;;;;138.70;129.68;;;;;;;;;;10456012;28;20025;-82
2022/09/10 00:16:37;;;;;;;124.97;117.18;;;;;;;;;;10457989;28;20152;-84
2022/09/10 00:21:37;;;;;;;190.73;178.43;;;;;;;;;;10491022;28;20067;-83
2022/09/10 00:26:38;;;;;;;172.02;161.05;;;;;;;;;;10474955;28;20048;-82
2022/09/10 00:31:50;;;;;;;160.77;151.07;;;;;;;;;;10474971;28;20441;-84
2022/09/10 00:36:50;;;;;;;185.77;174.73;;;;;;;;;;10447688;28;20156;-82
2022/09/10 00:41:54;;;;;;;239.95;225.27;;;;;;;;;;10470864;28;20146;-83
2022/09/10 00:47:03;;;;;;;230.82;216.35;;;;;;;;;;10456592;28;20025;-85
2022/09/10 00:52:07;;;;;;;230.57;216.57;;;;;;;;;;10471771;28;20027;-89
2022/09/10 00:57:27;;;;;;;272.83;255.48;;;;;;;;;;10458597;28;20048;-82
2022/09/10 01:02:28;;;;;;;264.30;247.65;;;;;;;;;;10471958;28;20028;-85
2022/09/10 01:07:29;;;;;;;213.50;200.43;;;;;;;;;;10471289;28;20028;-79
2022/09/10 01:12:48;;;;;;;318.92;298.25;;;;;;;;;;10472250;28;20409;-82
2022/09/10 01:18:10;;;;;;;352.83;329.98;;;;;;;;;;10470362;28;20032;-85
2022/09/10 01:23:30;;;;;;;347.92;325.63;;;;;;;;;;10482126;28;20045;-82
2022/09/10 01:28:37;;;;;;;425.40;396.85;;;;;;;;;;10470307;28;20047;-81
2022/09/10 01:33:49;;;;;;;474.30;442.33;;;;;;;;;;10472702;28;20116;-83
2022/09/10 01:38:50;;;;;;;510.77;476.40;;;;;;;;;;10482502;28;20025;-80
2022/09/10 01:43:50;;;;;;;518.10;483.13;;;;;;;;;;10470689;28;20013;-83
2022/09/10 01:48:53;;;;;;;476.08;444.58;;;;;;;;;;10489125;28;20056;-82
2022/09/10 01:53:59;;;;;;;597.00;554.92;;;;;;;;;;10470479;28;20027;-81
2022/09/10 01:59:02;;;;;;;579.85;539.97;;;;;;;;;;10480259;28;20021;-82
2022/09/10 02:04:05;;;;;;;777.65;719.65;;;;;;;;;;10476627;28;20020;-81
2022/09/10 02:09:28;;;;;;;863.95;799.15;;;;;;;;;;10478074;28;20039;-84
2022/09/10 02:14:31;;;;;;;857.20;793.58;;;;;;;;;;10477203;28;20034;-85
2022/09/10 02:19:31;;;;;;;790.55;730.78;;;;;;;;;;10408871;22;20423;-91
2022/09/10 02:24:31;;;;;;;771.13;713.80;;;;;;;;;;10406831;28;20030;-90
2022/09/10 02:29:33;;;;;;;880.83;815.33;;;;;;;;;;10403946;28;20090;-90
2022/09/10 02:34:34;;;;;;;978.92;905.97;;;;;;;;;;10414351;28;20452;-90
2022/09/10 02:39:34;;;;;;;1006.70;931.03;;;;;;;;;;10382282;28;20025;-90
2022/09/10 02:44:34;;;;;;;997.33;921.72;;;;;;;;;;10378587;28;20021;-90
2022/09/10 02:49:35;;;;;;;1015.15;934.60;;;;;;;;;;10386648;28;20547;-89
2022/09/10 02:54:35;;;;;;;951.92;881.22;;;;;;;;;;10423803;28;20479;-90
2022/09/10 02:59:35;;;;;;;938.15;868.55;;;;;;;;;;10419309;28;20543;-90
2022/09/10 03:04:36;;;;;;;1007.85;929.28;;;;;;;;;;10418090;28;20017;-90
2022/09/10 03:09:39;;;;;;;1032.97;951.92;;;;;;;;;;10390740;28;20037;-91
2022/09/10 03:14:40;;;;;;;1010.33;928.55;;;;;;;;;;10384010;28;20040;-90
2022/09/10 03:19:40;;;;;;;1006.97;923.87;;;;;;;;;;10403930;28;20056;-90
2022/09/10 03:24:40;;;;;;;998.83;917.63;;;;;;;;;;10412163;28;20024;-90
2022/09/10 03:29:42;;;;;;;1012.55;927.05;;;;;;;;;;10395491;28;20024;-91
2022/09/10 03:34:43;;;;;;;1030.80;945.67;;;;;;;;;;10401551;28;20025;-90
2022/09/10 03:39:43;;;;;;;1024.68;937.38;;;;;;;;;;10424275;28;20040;-90
2022/09/10 03:44:43;;;;;;;1036.00;947.03;;;;;;;;;;10420226;28;20116;-90
2022/09/10 03:49:43;;;;;;;1031.15;945.58;;;;;;;;;;10418632;28;20025;-90
2022/09/10 03:54:49;;;;;;;997.83;911.08;;;;;;;;;;10441036;28;20059;-90
2022/09/10 03:59:51;;;;;;;1016.15;928.40;;;;;;;;;;10416613;28;20167;-91
2022/09/10 04:04:51;;;;;;;1007.70;918.13;;;;;;;;;;10416423;28;20458;-92
2022/09/10 04:09:52;;;;;;;1019.75;920.72;;;;;;;;;;10417590;28;20074;-91
2022/09/10 04:14:52;;;;;;;1012.13;914.67;;;;;;;;;;10414708;28;20535;-92
2022/09/10 04:19:52;;;;;;;1021.90;922.53;;;;;;;;;;10407650;28;20054;-91
2022/09/10 04:24:52;;;;;;;1055.75;953.70;;;;;;;;;;10416404;28;20403;-90
2022/09/10 04:29:53;;;;;;;1043.37;942.63;;;;;;;;;;10414111;28;20083;-90
2022/09/10 04:34:53;;;;;;;1036.18;935.63;;;;;;;;;;10416717;28;20112;-91
2022/09/10 04:39:54;;;;;;;1041.57;941.20;;;;;;;;;;10417157;28;20498;-90
2022/09/10 04:44:54;;;;;;;1068.78;965.67;;;;;;;;;;10404496;28;20017;-91
2022/09/10 04:49:54;;;;;;;1051.70;949.67;;;;;;;;;;10379209;28;20545;-90
2022/09/10 04:54:55;;;;;;;1053.90;952.33;;;;;;;;;;10377639;28;20029;-90
2022/09/10 05:00:25;;;;;;;1047.22;945.60;;;;;;;;;;10388003;28;20024;-92
2022/09/10 05:05:27;;;;;;;1054.43;952.33;;;;;;;;;;10418026;28;20033;-91
2022/09/10 05:10:27;;;;;;;1040.45;938.83;;;;;;;;;;10458714;28;20032;-92
2022/09/10 05:15:27;;;;;;;1053.38;951.55;;;;;;;;;;10418110;28;20562;-90
2022/09/10 05:20:28;;;;;;;1077.72;974.08;;;;;;;;;;10387164;28;20166;-92
2022/09/10 05:25:28;;;;;;;1059.33;957.37;;;;;;;;;;10411560;28;20043;-91
2022/09/10 05:30:31;;;;;;;1063.72;960.78;;;;;;;;;;10376669;28;20034;-92
2022/09/10 05:35:32;;;;;;;1020.83;921.88;;;;;;;;;;10382276;28;20456;-92
2022/09/10 05:40:32;;;;;;;1031.78;933.80;;;;;;;;;;10405854;28;20444;-92
2022/09/10 05:45:33;;;;;;;1059.25;956.75;;;;;;;;;;10421464;28;20447;-92
2022/09/10 05:50:33;;;;;;;1074.40;971.17;;;;;;;;;;10420419;28;20091;-92
2022/09/10 05:55:33;;;;;;;1075.50;971.90;;;;;;;;;;10398174;28;20410;-91
2022/09/10 06:00:35;;;;;;;1058.93;956.40;;;;;;;;;;10421449;28;20025;-92
2022/09/10 06:06:01;;;;;;;1060.32;957.20;;;;;;;;;;10423369;28;20447;-92
2022/09/10 06:11:04;;;;;;;1067.65;964.72;;;;;;;;;;10414969;28;20036;-92
2022/09/10 06:16:06;;;;;;;1071.80;968.88;;;;;;;;;;10418368;28;20404;-92
2022/09/10 06:21:07;;;;;;;1083.18;980.30;;;;;;;;;;10439875;28;20025;-92
2022/09/10 06:26:12;;;;;;;1081.70;978.20;;;;;;;;;;10393367;28;20060;-91
2022/09/10 06:31:16;;;;;;;1082.85;978.60;;;;;;;;;;10382634;28;20017;-91
2022/09/10 06:36:17;;;;;;;1071.50;968.63;;;;;;;;;;10421266;28;20036;-92
2022/09/10 06:41:18;;;;;;;1067.83;965.27;;;;;;;;;;10416873;28;20471;-91
2022/09/10 06:46:18;;;;;;;1095.95;991.30;;;;;;;;;;10419588;28;20020;-91
2022/09/10 06:51:19;;;;;;;1085.03;980.92;;;;;;;;;;10419515;28;20448;-92
2022/09/10 06:56:19;;;;;;;1112.78;999.75;;;;;;;;;;10417778;28;20024;-89
2022/09/10 07:01:22;;;;;;;1111.72;999.22;;;;;;;;;;10417770;28;20021;-89
2022/09/10 07:06:23;;;;;;;1108.80;999.15;;;;;;;;;;10419102;28;20021;-89
2022/09/10 07:11:24;;;;;;;1108.88;998.92;;;;;;;;;;10417999;28;20337;-91
2022/09/10 07:16:25;;;;;;;1122.35;999.90;;;;;;;;;;10412951;28;20511;-91
2022/09/10 07:21:26;;;;;;;1144.53;999.90;;;;;;;;;;10377001;28;20032;-92
2022/09/10 07:26:27;;;;;;;1138.50;999.90;;;;;;;;;;10375794;28;20025;-91
2022/09/10 07:31:28;;;;;;;1156.18;999.90;;;;;;;;;;10399852;28;20395;-90
2022/09/10 07:36:29;;;;;;;1175.30;999.90;;;;;;;;;;10436021;28;20020;-90
2022/09/10 07:41:54;;;;;;;1203.38;999.90;;;;;;;;;;10388592;28;20490;-91
2022/09/10 07:46:53;;;;;;;1202.05;999.90;;;;;;;;;;10406050;28;20187;-91
2022/09/10 07:51:57;;;;;;;1195.67;999.90;;;;;;;;;;10433316;28;20017;-91
2022/09/10 07:56:57;;;;;;;1214.68;999.90;;;;;;;;;;10405346;28;20490;-90
2022/09/10 08:02:00;;;;;;;1212.85;999.90;;;;;;;;;;10380691;28;20020;-91
2022/09/10 08:07:03;;;;;;;636.90;584.65;;;;;;;;;;10414243;28;20029;-92
2022/09/10 08:12:09;;;;;;;1219.80;999.90;;;;;;;;;;10375083;28;20450;-91
2022/09/10 08:17:09;;;;;;;1241.40;999.90;;;;;;;;;;10406204;28;20111;-91
2022/09/10 08:22:10;;;;;;;1252.33;999.90;;;;;;;;;;10373289;28;20606;-91
2022/09/10 08:27:10;;;;;;;1236.57;999.90;;;;;;;;;;10395187;28;20021;-92
2022/09/10 08:32:13;;;;;;;1216.90;999.90;;;;;;;;;;10402059;28;20314;-90
2022/09/10 08:37:15;;;;;;;1194.22;999.90;;;;;;;;;;10390732;28;20021;-91
2022/09/10 08:42:21;;;;;;;897.78;819.72;;;;;;;;;;10373727;28;20510;-91
2022/09/10 08:47:21;;;;;;;962.90;878.50;;;;;;;;;;10407737;28;20039;-92
2022/09/10 08:52:21;;;;;;;1064.57;971.07;;;;;;;;;;10416880;28;20585;-92
2022/09/10 08:57:25;;;;;;;1048.38;955.72;;;;;;;;;;10415984;28;20032;-90
2022/09/10 09:02:32;;;;;;;1077.35;983.67;;;;;;;;;;10385936;28;20537;-90
2022/09/10 09:07:38;;;;;;;1041.95;950.70;;;;;;;;;;10379362;28;20410;-90
2022/09/10 09:12:44;;;;;;;1104.30;999.90;;;;;;;;;;10414415;28;20025;-91
2022/09/10 09:18:00;;;;;;;18.88;7.15;;;;;;;;;;10397591;28;20508;-91
2022/09/10 09:23:03;;;;;;;12.52;6.25;;;;;;;;;;10403137;28;20056;-90
2022/09/10 09:28:09;;;;;;;11.43;7.03;;;;;;;;;;10412511;28;20025;-91
2022/09/10 09:33:12;;;;;;;16.17;7.30;;;;;;;;;;10413518;28;20082;-91
2022/09/10 09:38:17;;;;;;;17.15;8.13;;;;;;;;;;10414537;28;20040;-91
2022/09/10 09:43:22;;;;;;;15.75;7.13;;;;;;;;;;10416673;28;20026;-91
2022/09/10 09:48:23;;;;;;;14.48;7.28;;;;;;;;;;10414604;28;20411;-90
2022/09/10 09:53:29;;;;;;;15.68;7.07;;;;;;;;;;10398587;28;20025;-90
2022/09/10 09:58:32;;;;;;;19.52;7.07;;;;;;;;;;10385346;28;20025;-91
2022/09/10 10:03:53;;;;;;;15.43;6.18;;;;;;;;;;10398973;28;20040;-90
2022/09/10 10:08:58;;;;;;;15.57;6.38;;;;;;;;;;10412257;28;20155;-91
2022/09/10 10:14:10;;;;;;;13.25;6.65;;;;;;;;;;10419813;28;20020;-92
2022/09/10 10:19:33;;;;;;;12.18;5.63;;;;;;;;;;10424856;28;20091;-91
2022/09/10 10:24:33;;;;;;;11.90;4.88;;;;;;;;;;10427797;28;20392;-92
2022/09/10 10:29:33;;;;;;;6.75;4.28;;;;;;;;;;10448709;28;20021;-92
2022/09/10 10:34:40;;;;;;;11.17;3.90;;;;;;;;;;10467189;28;20044;-92
2022/09/10 10:40:01;;;;;;;8.20;3.75;;;;;;;;;;10485334;28;20060;-93
2022/09/10 10:45:13;;;;;;;10.27;4.65;;;;;;;;;;10463546;28;20039;-96
2022/09/10 10:56:42;;;;;;;17.10;5.63;;;;;;;;;;10371471;28;20006;-92
2022/09/10 11:01:46;;;;;;;14.57;4.75;;;;;;;;;;10336359;28;20488;-91
2022/09/10 11:12:37;;;;;;;17.02;4.68;;;;;;;;;;10350971;28;20573;-92
2022/09/10 11:17:40;;;;;;;15.32;3.90;;;;;;;;;;10386756;28;20037;-92
2022/09/10 11:22:52;;;;;;;10.18;4.05;;;;;;;;;;10409427;28;20021;-92
2022/09/10 11:27:55;;;;;;;13.85;4.30;;;;;;;;;;10379031;28;20085;-92
2022/09/10 11:32:59;;;;;;;14.88;3.30;;;;;;;;;;10424417;28;20556;-92
2022/09/10 11:38:19;;;;;;;6.38;3.28;;;;;;;;;;10436276;28;20388;-91
2022/09/10 11:43:32;;;;;;;11.93;3.05;;;;;;;;;;10418185;28;20021;-91
2022/09/10 11:48:39;;;;;;;8.60;4.25;;;;;;;;;;10419902;28;20093;-92
2022/09/10 11:53:40;;;;;;;12.32;4.38;;;;;;;;;;10416454;28;20025;-91
2022/09/10 11:58:48;;;;;;;13.00;4.00;;;;;;;;;;10417310;28;20041;-91
2022/09/10 12:03:54;;;;;;;9.60;3.58;;;;;;;;;;10415533;28;20078;-93
2022/09/10 12:09:13;;;;;;;8.80;3.97;;;;;;;;;;10377842;28;20021;-92
2022/09/10 12:14:15;;;;;;;18.35;4.63;;;;;;;;;;10400841;28;20028;-91
2022/09/10 12:19:25;;;;;;;14.70;5.35;;;;;;;;;;10409934;28;20130;-91
2022/09/10 12:24:38;;;;;;;15.68;7.10;;;;;;;;;;10375047;28;20014;-91
2022/09/10 12:29:42;;;;;;;16.13;6.85;;;;;;;;;;10411594;28;20032;-92
2022/09/10 12:34:42;;;;;;;16.48;6.95;;;;;;;;;;10415813;28;20443;-91
2022/09/10 12:39:43;;;;;;;18.23;6.97;;;;;;;;;;10415482;28;20485;-91
2022/09/10 12:44:44;;;;;;;13.38;7.63;;;;;;;;;;10419589;28;20020;-91
2022/09/10 12:49:49;;;;;;;16.48;7.13;;;;;;;;;;10415304;28;20423;-91
2022/09/10 12:54:56;;;;;;;17.80;6.38;;;;;;;;;;10416794;28;20491;-91
2022/09/10 13:00:15;;;;;;;18.57;6.33;;;;;;;;;;10424066;28;20025;-92
2022/09/10 13:05:15;;;;;;;14.15;6.75;;;;;;;;;;10419124;28;20533;-91
2022/09/10 13:10:19;;;;;;;20.92;6.47;;;;;;;;;;10417962;28;20494;-91
2022/09/10 13:15:34;;;;;;;16.55;6.50;;;;;;;;;;10416294;28;20044;-91
2022/09/10 13:20:34;;;;;;;16.40;6.05;;;;;;;;;;10371936;28;20182;-91
2022/09/10 13:25:39;;;;;;;14.23;6.00;;;;;;;;;;10405583;28;20071;-90
2022/09/10 13:30:40;;;;;;;17.02;6.68;;;;;;;;;;10392492;28;20021;-90
2022/09/10 13:35:40;;;;;;;19.38;6.40;;;;;;;;;;10414349;28;20025;-90
2022/09/10 13:40:59;;;;;;;19.80;7.68;;;;;;;;;;10414320;28;20032;-90
2022/09/10 13:46:01;;;;;;;17.50;6.18;;;;;;;;;;10420093;28;20360;-90
2022/09/10 13:51:29;;;;;;;11.70;6.05;;;;;;;;;;10421960;28;20020;-91
2022/09/10 13:56:32;;;;;;;19.80;4.65;;;;;;;;;;10423150;28;20403;-90
2022/09/10 14:01:51;;;;;;;18.33;5.65;;;;;;;;;;10423271;28;20029;-90
2022/09/10 14:06:56;;;;;;;20.55;5.72;;;;;;;;;;10420785;28;20039;-91
2022/09/10 14:11:58;;;;;;;17.00;6.38;;;;;;;;;;10423517;28;20025;-90
2022/09/10 14:17:01;;;;;;;14.80;5.65;;;;;;;;;;10412605;28;20056;-90
2022/09/10 14:22:02;;;;;;;12.27;5.63;;;;;;;;;;10444173;28;20040;-91
2022/09/10 14:27:04;;;;;;;13.13;6.45;;;;;;;;;;10429873;28;20021;-91
2022/09/10 14:32:24;;;;;;;9.00;6.22;;;;;;;;;;10426077;28;20048;-91
2022/09/10 14:37:31;;;;;;;10.13;6.22;;;;;;;;;;10440004;28;20400;-92
2022/09/10 14:42:32;;;;;;;15.63;6.75;;;;;;;;;;10442327;28;20021;-91
2022/09/10 14:47:34;;;;;;;15.85;8.60;;;;;;;;;;10420351;28;20017;-91
2022/09/10 14:52:36;;;;;;;13.98;7.18;;;;;;;;;;10420254;28;20491;-90
2022/09/10 14:57:37;;;;;;;14.85;6.22;;;;;;;;;;10423638;28;20020;-91
2022/09/10 15:02:39;;;;;;;16.20;6.55;;;;;;;;;;10420279;28;20100;-90
2022/09/10 15:07:40;;;;;;;7.57;5.10;;;;;;;;;;10419640;28;20459;-90
2022/09/10 15:12:42;;;;;;;14.15;5.28;;;;;;;;;;10422484;28;20021;-92
2022/09/10 15:17:42;;;;;;;12.77;5.15;;;;;;;;;;10404098;28;20045;-91
2022/09/10 15:22:43;;;;;;;12.27;5.53;;;;;;;;;;10428131;28;20021;-91
2022/09/10 15:27:43;;;;;;;12.98;4.38;;;;;;;;;;10424327;28;20108;-90
2022/09/10 15:32:44;;;;;;;11.67;4.70;;;;;;;;;;10419022;28;20044;-91
2022/09/10 15:37:45;;;;;;;18.17;6.38;;;;;;;;;;10396513;28;20192;-91
2022/09/10 15:42:45;;;;;;;14.68;5.80;;;;;;;;;;10423513;28;20681;-90
2022/09/10 15:47:46;;;;;;;16.43;6.73;;;;;;;;;;10419286;28;20021;-91
2022/09/10 15:52:46;;;;;;;28.67;7.43;;;;;;;;;;10420117;28;20021;-92
2022/09/10 15:57:50;;;;;;;17.00;6.63;;;;;;;;;;10425159;28;20021;-92
2022/09/10 16:02:51;;;;;;;16.77;7.07;;;;;;;;;;10418642;28;20010;-92
2022/09/10 16:07:52;;;;;;;17.35;6.65;;;;;;;;;;10398728;28;20033;-91
2022/09/10 16:12:52;;;;;;;18.73;7.22;;;;;;;;;;10379630;28;20022;-93
2022/09/10 16:17:52;;;;;;;19.25;8.30;;;;;;;;;;10393557;28;20049;-93
2022/09/10 16:22:53;;;;;;;14.95;7.53;;;;;;;;;;10429099;28;20013;-89
2022/09/10 16:27:53;;;;;;;21.35;8.65;;;;;;;;;;10420121;28;20108;-90
2022/09/10 16:32:54;;;;;;;17.05;9.23;;;;;;;;;;10415907;28;20028;-90
2022/09/10 16:44:08;;;;;;;18.25;10.30;;;;;;;;;;10359659;28;20037;-93
2022/09/10 16:49:12;;;;;;;21.33;10.65;;;;;;;;;;10334190;28;20022;-91
2022/09/10 16:54:13;;;;;;;32.15;12.23;;;;;;;;;;10410029;28;20087;-90
2022/09/10 16:59:14;;;;;;;29.33;12.45;;;;;;;;;;10423861;28;20032;-91
2022/09/10 17:04:17;;;;;;;20.75;9.63;;;;;;;;;;10423285;28;20021;-91
2022/09/10 17:09:17;;;;;;;22.63;9.80;;;;;;;;;;10422091;28;20025;-92
2022/09/10 17:14:18;;;;;;;30.33;14.00;;;;;;;;;;10425207;28;20509;-90
2022/09/10 17:19:22;;;;;;;32.95;15.50;;;;;;;;;;10384977;28;20041;-91
2022/09/10 17:24:23;;;;;;;23.65;10.10;;;;;;;;;;10379810;28;20427;-91
2022/09/10 17:29:24;;;;;;;13.93;7.43;;;;;;;;;;10380187;28;20468;-91
2022/09/10 17:34:26;;;;;;;22.17;6.10;;;;;;;;;;10382682;28;20021;-92
2022/09/10 17:39:28;;;;;;;14.23;4.97;;;;;;;;;;10379354;28;20053;-92
2022/09/10 17:44:28;;;;;;;10.85;4.78;;;;;;;;;;10374679;28;20452;-92
2022/09/10 17:49:29;;;;;;;12.90;4.30;;;;;;;;;;10373657;28;20112;-91
2022/09/10 17:54:30;;;;;;;8.73;4.35;;;;;;;;;;10378402;28;20026;-91
2022/09/10 17:59:31;;;;;;;10.90;4.60;;;;;;;;;;10373618;28;20037;-91
2022/09/10 18:04:31;;;;;;;5.60;3.78;;;;;;;;;;10374994;28;20013;-91
2022/09/10 18:09:31;;;;;;;9.90;4.07;;;;;;;;;;10375937;28;20071;-91
2022/09/10 18:14:32;;;;;;;8.80;3.90;;;;;;;;;;10373786;28;20393;-90
2022/09/10 18:19:32;;;;;;;13.70;5.87;;;;;;;;;;10341614;28;20355;-92
2022/09/10 18:24:33;;;;;;;14.80;5.65;;;;;;;;;;10363185;28;20464;-91
2022/09/10 18:29:34;;;;;;;14.45;5.55;;;;;;;;;;10353486;28;20492;-91
2022/09/10 18:34:34;;;;;;;15.00;5.32;;;;;;;;;;10375600;28;20048;-91
2022/09/10 18:39:34;;;;;;;8.00;4.75;;;;;;;;;;10387388;28;20033;-91
2022/09/10 18:44:35;;;;;;;11.33;6.13;;;;;;;;;;10381053;28;20013;-91
2022/09/10 18:49:38;;;;;;;9.80;7.68;;;;;;;;;;10380603;28;20022;-90
2022/09/10 18:54:40;;;;;;;9.60;8.57;;;;;;;;;;10400642;28;20109;-91
2022/09/10 18:59:40;;;;;;;10.18;6.97;;;;;;;;;;10377911;28;20030;-91
2022/09/10 19:04:41;;;;;;;16.33;11.15;;;;;;;;;;10378355;28;20039;-90
2022/09/10 19:09:42;;;;;;;19.20;17.43;;;;;;;;;;10379336;28;20057;-91
2022/09/10 19:14:42;;;;;;;22.83;21.30;;;;;;;;;;10368992;28;20095;-92
2022/09/10 19:19:42;;;;;;;16.95;15.82;;;;;;;;;;10371233;28;20112;-91
2022/09/10 19:24:43;;;;;;;18.20;16.45;;;;;;;;;;10341769;28;20040;-91
2022/09/10 19:29:46;;;;;;;19.48;17.90;;;;;;;;;;10339347;28;20154;-91
2022/09/10 19:34:49;;;;;;;10.15;8.82;;;;;;;;;;10380176;28;20028;-90
2022/09/10 19:39:50;;;;;;;10.00;9.05;;;;;;;;;;10342684;28;20022;-90
2022/09/10 19:44:50;;;;;;;33.30;31.27;;;;;;;;;;10359494;28;20065;-91
2022/09/10 19:49:50;;;;;;;17.35;12.90;;;;;;;;;;10378944;28;20433;-91
2022/09/10 19:54:51;;;;;;;14.38;11.10;;;;;;;;;;10357367;28;20045;-91
2022/09/10 19:59:51;;;;;;;43.40;40.83;;;;;;;;;;10344482;28;20080;-91
2022/09/10 20:04:51;;;;;;;36.35;34.05;;;;;;;;;;10380004;28;20263;-91
2022/09/10 20:09:52;;;;;;;80.85;75.90;;;;;;;;;;10370786;28;20073;-91
2022/09/10 20:14:52;;;;;;;81.53;76.63;;;;;;;;;;10365046;28;20025;-91
2022/09/10 20:19:53;;;;;;;31.63;29.17;;;;;;;;;;10417571;28;20444;-91
2022/09/10 20:24:55;;;;;;;82.55;77.75;;;;;;;;;;10422505;28;20017;-90
2022/09/10 20:29:55;;;;;;;47.33;43.80;;;;;;;;;;10415987;28;20028;-90
2022/09/10 20:34:56;;;;;;;48.25;44.83;;;;;;;;;;10419855;28;20021;-90
2022/09/10 20:39:59;;;;;;;76.60;72.40;;;;;;;;;;10391765;28;20475;-90
2022/09/10 20:44:59;;;;;;;91.30;86.18;;;;;;;;;;10374430;28;20541;-90
2022/09/10 20:50:00;;;;;;;84.15;79.15;;;;;;;;;;10409269;28;20395;-91
2022/09/10 20:55:01;;;;;;;96.00;90.35;;;;;;;;;;10417443;28;20025;-90
2022/09/10 21:00:02;;;;;;;47.50;44.65;;;;;;;;;;10413195;28;20423;-91
2022/09/10 21:05:03;;;;;;;27.95;25.45;;;;;;;;;;10417209;28;20028;-92
2022/09/10 21:10:04;;;;;;;87.57;82.43;;;;;;;;;;10406297;28;20026;-91
2022/09/10 21:15:04;;;;;;;63.20;59.33;;;;;;;;;;10375514;28;20041;-91
2022/09/10 21:20:05;;;;;;;58.50;54.97;;;;;;;;;;10406848;28;20033;-90
2022/09/10 21:25:06;;;;;;;89.55;84.22;;;;;;;;;;10419146;28;20476;-90
2022/09/10 21:30:06;;;;;;;106.80;101.05;;;;;;;;;;10440846;28;20021;-92
2022/09/10 21:35:07;;;;;;;48.13;44.90;;;;;;;;;;10417144;28;20470;-91
2022/09/10 21:40:10;;;;;;;41.13;38.63;;;;;;;;;;10375168;28;20036;-90
2022/09/10 21:45:10;;;;;;;564.47;524.92;;;;;;;;;;10401646;28;20028;-91
2022/09/10 21:50:11;;;;;;;652.72;605.15;;;;;;;;;;10397962;28;20026;-91
2022/09/10 21:55:11;;;;;;;161.40;152.27;;;;;;;;;;10373149;28;20337;-92
2022/09/10 22:00:13;;;;;;;205.90;193.75;;;;;;;;;;10408036;28;20503;-91
2022/09/10 22:05:14;;;;;;;187.25;175.93;;;;;;;;;;10421897;28;20088;-91
2022/09/10 22:10:17;;;;;;;216.83;203.47;;;;;;;;;;10385281;28;20028;-91
2022/09/10 22:15:17;;;;;;;230.23;216.13;;;;;;;;;;10420299;28;20046;-91
2022/09/10 22:20:17;;;;;;;248.93;233.75;;;;;;;;;;10441397;28;20446;-91
2022/09/10 22:25:18;;;;;;;337.55;315.75;;;;;;;;;;10421927;28;20083;-91
2022/09/10 22:30:18;;;;;;;451.73;420.65;;;;;;;;;;10420166;28;20025;-91
2022/09/10 22:35:18;;;;;;;211.20;198.38;;;;;;;;;;10441617;28;20029;-92
2022/09/10 22:40:19;;;;;;;223.40;209.63;;;;;;;;;;10423896;28;20021;-91
2022/09/10 22:45:19;;;;;;;275.85;258.63;;;;;;;;;;10423993;28;20447;-91
2022/09/10 22:50:20;;;;;;;314.10;294.00;;;;;;;;;;10388047;28;20041;-92
2022/09/10 22:55:21;;;;;;;354.40;331.23;;;;;;;;;;10409840;28;20040;-92
2022/09/10 23:00:21;;;;;;;381.15;355.60;;;;;;;;;;10413542;28;20029;-92
2022/09/10 23:05:21;;;;;;;391.57;365.73;;;;;;;;;;10438850;28;20170;-91
2022/09/10 23:10:22;;;;;;;48.17;44.93;;;;;;;;;;10407427;28;20534;-92
2022/09/10 23:15:22;;;;;;;8.80;5.93;;;;;;;;;;10423658;28;20084;-90
2022/09/10 23:20:23;;;;;;;15.10;5.10;;;;;;;;;;10418579;28;20128;-92
2022/09/10 23:25:24;;;;;;;10.05;4.93;;;;;;;;;;10421100;28;20021;-91
2022/09/10 23:30:24;;;;;;;11.55;5.55;;;;;;;;;;10408925;28;20471;-91
2022/09/10 23:35:24;;;;;;;32.45;30.20;;;;;;;;;;10380965;28;20021;-92
2022/09/10 23:40:25;;;;;;;61.20;57.38;;;;;;;;;;10411645;28;20033;-92
2022/09/10 23:45:26;;;;;;;11.43;9.05;;;;;;;;;;10376582;28;20032;-90
2022/09/10 23:50:26;;;;;;;329.48;308.85;;;;;;;;;;10417690;28;20025;-91
2022/09/10 23:55:26;;;;;;;247.30;232.45;;;;;;;;;;10417626;28;20475;-92
